Terminal Aerodrome Forecast
Issued by NWS Central Illinois

Home | Current Version | Previous Version | Text Only | Print | Product List | Glossary On
Versions: 1 2 3 4 5 6 7 8 9 10 11 12 13 14 15 16 17 18 19 20 21 22 23 24 25 26 27 28 29 30
000
FTUS43 KILX 282114 AAB
TAFPIA
TAF AMD
KPIA 282114Z 2821/2918 02012KT P6SM VCTS SCT035CB BKN250
     FM282300 07005KT P6SM VCTS SCT035CB BKN250
     FM290200 VRB03KT P6SM BKN250
     FM290800 VRB03KT 5SM BR SCT250
     FM291400 09005KT P6SM SCT025=

USA.gov is the U.S. government's official web portal to all federal, state and local government web resources and services.